createdAt,value
2017-08-18T00:00:02.763Z,100889.41
2017-08-18T00:02:31.072Z,100883.37
2017-08-18T00:04:58.979Z,100885.23
2017-08-18T00:07:26.920Z,100881.64
2017-08-18T00:09:54.833Z,100889.52
2017-08-18T00:12:23.130Z,100889.39
2017-08-18T00:14:51.035Z,100884.60
2017-08-18T00:17:19.137Z,100883.75
2017-08-18T00:19:47.043Z,100883.89
2017-08-18T00:22:14.953Z,100887.08
2017-08-18T00:24:42.872Z,100879.75
2017-08-18T00:27:11.167Z,100872.84
2017-08-18T00:29:39.192Z,100869.15
2017-08-18T00:32:07.091Z,100870.16
2017-08-18T00:34:35.391Z,100864.09
2017-08-18T00:37:03.297Z,100878.73
2017-08-18T00:39:31.213Z,100876.05
2017-08-18T00:41:59.383Z,100876.20
2017-08-18T00:44:27.303Z,100881.02
2017-08-18T00:46:55.202Z,100897.51
2017-08-18T00:49:23.127Z,100892.62
2017-08-18T00:51:51.040Z,100894.45
2017-08-18T00:54:19.357Z,100896.03
2017-08-18T00:56:47.255Z,100889.41
2017-08-18T00:59:15.155Z,100892.00
2017-08-18T01:01:43.472Z,100891.18
2017-08-18T01:04:11.379Z,100884.29
2017-08-18T01:06:39.310Z,100876.24
2017-08-18T01:09:07.206Z,100881.02
2017-08-18T01:11:35.119Z,100882.91
2017-08-18T01:14:03.422Z,100882.52
2017-08-18T01:16:31.545Z,100880.55
2017-08-18T01:18:59.456Z,100893.45
2017-08-18T01:21:27.358Z,100892.86
2017-08-18T01:23:55.280Z,100885.18
2017-08-18T01:26:23.589Z,100887.91
2017-08-18T01:28:51.498Z,100881.26
2017-08-18T01:31:19.408Z,100881.98
2017-08-18T01:33:47.315Z,100883.36
2017-08-18T01:36:15.304Z,100889.10
2017-08-18T01:38:43.377Z,100896.77
2017-08-18T01:41:11.278Z,100896.08
2017-08-18T01:43:39.188Z,100896.70
2017-08-18T01:46:07.110Z,100902.85
2017-08-18T01:48:35.398Z,100901.02
2017-08-18T01:51:03.310Z,100900.55
2017-08-18T01:53:31.210Z,100890.95
2017-08-18T01:55:59.629Z,100892.86
2017-08-18T01:58:27.557Z,100885.49
2017-08-18T02:00:55.820Z,100882.55
2017-08-18T02:03:23.730Z,100881.23
2017-08-18T02:05:51.646Z,100884.31
2017-08-18T02:08:19.560Z,100892.88
2017-08-18T02:10:47.487Z,100891.84
2017-08-18T02:13:15.395Z,100888.73
2017-08-18T02:15:43.708Z,100885.96
2017-08-18T02:18:11.850Z,100885.27
2017-08-18T02:20:39.760Z,100891.19
2017-08-18T02:23:07.659Z,100897.67
2017-08-18T02:25:35.578Z,100887.22
2017-08-18T02:28:03.488Z,100878.41
2017-08-18T02:30:31.398Z,100872.70
2017-08-18T02:32:59.296Z,100879.29
2017-08-18T02:35:27.206Z,100868.77
2017-08-18T02:37:55.109Z,100863.70
2017-08-18T02:40:23.226Z,100858.55
2017-08-18T02:42:51.137Z,100853.84
2017-08-18T02:45:19.443Z,100856.66
2017-08-18T02:47:47.601Z,100852.53
2017-08-18T02:50:15.499Z,100856.16
2017-08-18T02:52:43.425Z,100857.56
2017-08-18T02:55:11.733Z,100856.16
2017-08-18T02:57:39.639Z,100857.93
2017-08-18T03:00:07.549Z,100864.76
2017-08-18T03:02:35.581Z,100857.94
2017-08-18T03:05:03.488Z,100856.80
2017-08-18T03:07:31.397Z,100866.02
2017-08-18T03:09:59.320Z,100865.22
2017-08-18T03:12:27.824Z,100862.67
2017-08-18T03:14:55.745Z,100866.52
2017-08-18T03:17:23.643Z,100868.25
2017-08-18T03:19:51.555Z,100870.79
2017-08-18T03:22:19.460Z,100868.56
2017-08-18T03:24:47.930Z,100861.13
2017-08-18T03:27:16.139Z,100871.23
2017-08-18T03:29:44.060Z,100873.97
2017-08-18T03:32:11.962Z,100878.98
2017-08-18T03:34:40.273Z,100872.09
2017-08-18T03:37:08.187Z,100871.76
2017-08-18T03:39:36.091Z,100876.47
2017-08-18T03:42:04.003Z,100876.32
2017-08-18T03:44:31.942Z,100869.86
2017-08-18T03:46:59.847Z,100873.34
2017-08-18T03:49:27.759Z,100867.19
2017-08-18T03:51:56.448Z,100870.77
2017-08-18T03:54:24.352Z,100877.73
2017-08-18T03:56:52.251Z,100881.98
2017-08-18T03:59:20.162Z,100890.95
2017-08-18T04:01:48.068Z,100886.80
2017-08-18T04:04:15.974Z,100884.72
2017-08-18T04:06:44.280Z,100884.77
2017-08-18T04:09:12.186Z,100888.41
2017-08-18T04:11:40.093Z,100886.44
2017-08-18T04:14:08.751Z,100879.34
2017-08-18T04:16:36.669Z,100882.30
2017-08-18T04:19:04.571Z,100878.34
2017-08-18T04:21:32.479Z,100871.44
2017-08-18T04:24:00.784Z,100864.08
2017-08-18T04:26:28.691Z,100861.91
2017-08-18T04:28:56.600Z,100865.83
2017-08-18T04:31:24.899Z,100873.45
2017-08-18T04:33:52.813Z,100880.90
2017-08-18T04:36:20.723Z,100884.84
2017-08-18T04:38:49.024Z,100887.28
2017-08-18T04:41:16.940Z,100894.41
2017-08-18T04:43:44.909Z,100898.96
2017-08-18T04:46:12.822Z,100885.98
2017-08-18T04:48:40.714Z,100893.52
2017-08-18T04:51:08.820Z,100882.74
2017-08-18T04:53:36.714Z,100881.58
2017-08-18T04:56:04.611Z,100878.66
2017-08-18T04:58:32.540Z,100879.73
2017-08-18T05:01:27.211Z,100880.94
2017-08-18T05:03:55.187Z,100878.61
2017-08-18T05:06:23.096Z,100883.04
2017-08-18T05:08:51.006Z,100888.94
2017-08-18T05:11:18.923Z,100889.12
2017-08-18T05:13:46.845Z,100885.66
2017-08-18T05:16:14.765Z,100876.11
2017-08-18T05:18:42.687Z,100868.73
2017-08-18T05:21:10.583Z,100861.30
2017-08-18T05:23:38.496Z,100859.73
2017-08-18T05:26:06.400Z,100859.95
2017-08-18T05:28:34.325Z,100859.23
2017-08-18T05:31:02.214Z,100850.47
2017-08-18T05:33:30.565Z,100854.30
2017-08-18T05:35:58.474Z,100858.77
2017-08-18T05:38:26.381Z,100860.08
2017-08-18T05:40:54.299Z,100858.05
2017-08-18T05:43:22.440Z,100854.70
2017-08-18T05:45:50.356Z,100855.97
2017-08-18T05:48:18.295Z,100857.80
2017-08-18T05:50:46.212Z,100868.13
2017-08-18T05:53:14.120Z,100866.08
2017-08-18T05:55:42.242Z,100866.06
2017-08-18T05:58:10.143Z,100869.34
2017-08-18T06:00:38.331Z,100881.06
2017-08-18T06:03:06.320Z,100880.55
2017-08-18T06:05:34.221Z,100879.87
2017-08-18T06:08:02.136Z,100871.97
2017-08-18T06:10:30.100Z,100870.61
2017-08-18T06:12:58.016Z,100872.53
2017-08-18T06:15:25.910Z,100869.20
2017-08-18T06:17:53.989Z,100875.11
2017-08-18T06:20:21.887Z,100876.69
2017-08-18T06:22:49.800Z,100866.99
2017-08-18T06:25:17.716Z,100858.65
2017-08-18T06:27:45.629Z,100859.53
2017-08-18T06:30:13.580Z,100854.24
2017-08-18T06:32:41.478Z,100853.23
2017-08-18T06:35:09.401Z,100851.64
2017-08-18T06:37:37.309Z,100846.68
2017-08-18T06:40:05.227Z,100853.26
2017-08-18T06:42:33.139Z,100845.02
2017-08-18T06:45:01.785Z,100842.57
2017-08-18T06:47:29.395Z,100845.03
2017-08-18T06:49:57.309Z,100835.64
2017-08-18T06:52:25.229Z,100835.87
2017-08-18T06:54:53.217Z,100836.89
2017-08-18T06:57:21.182Z,100836.66
2017-08-18T06:59:49.082Z,100844.64
2017-08-18T07:02:17.004Z,100839.66
2017-08-18T07:04:44.907Z,100845.86
2017-08-18T07:07:12.954Z,100843.87
2017-08-18T07:09:40.860Z,100841.24
2017-08-18T07:12:08.772Z,100837.58
2017-08-18T07:14:36.682Z,100838.19
2017-08-18T07:17:04.596Z,100831.75
2017-08-18T07:19:32.519Z,100840.86
2017-08-18T07:22:00.434Z,100837.20
2017-08-18T07:24:28.335Z,100834.71
2017-08-18T07:26:56.235Z,100831.02
2017-08-18T07:29:24.280Z,100840.41
2017-08-18T07:31:52.189Z,100833.97
2017-08-18T07:34:20.090Z,100835.32
2017-08-18T07:36:48.002Z,100836.31
2017-08-18T07:39:15.907Z,100845.20
2017-08-18T07:41:43.828Z,100849.17
2017-08-18T07:44:11.752Z,100854.28
2017-08-18T07:46:39.862Z,100856.95
2017-08-18T07:49:07.762Z,100853.45
2017-08-18T07:51:35.659Z,100850.05
2017-08-18T07:54:03.566Z,100847.95
2017-08-18T07:56:31.477Z,100847.52
2017-08-18T07:58:59.399Z,100850.50
2017-08-18T08:01:27.308Z,100855.49
2017-08-18T08:03:55.216Z,100853.88
2017-08-18T08:06:23.364Z,100851.72
2017-08-18T08:08:51.280Z,100852.22
2017-08-18T08:11:19.319Z,100854.32
2017-08-18T08:13:47.430Z,100853.52
2017-08-18T08:16:15.326Z,100847.93
2017-08-18T08:18:43.217Z,100844.67
2017-08-18T08:21:11.127Z,100848.84
2017-08-18T08:23:39.022Z,100841.70
2017-08-18T08:26:06.947Z,100836.56
2017-08-18T08:28:34.860Z,100842.52
2017-08-18T08:31:02.775Z,100837.50
2017-08-18T08:33:30.675Z,100838.93
2017-08-18T08:35:58.578Z,100834.48
2017-08-18T08:38:26.478Z,100842.48
2017-08-18T08:40:54.596Z,100840.05
2017-08-18T08:43:22.496Z,100849.00
2017-08-18T08:45:50.401Z,100846.17
2017-08-18T08:48:18.302Z,100833.05
2017-08-18T08:50:46.197Z,100843.86
2017-08-18T08:53:14.101Z,100846.47
2017-08-18T08:55:42.011Z,100842.05
2017-08-18T08:58:09.924Z,100839.19
2017-08-18T09:02:31.087Z,100831.68
2017-08-18T09:04:58.997Z,100831.62
2017-08-18T09:07:26.898Z,100824.28
2017-08-18T09:09:54.798Z,100829.76
2017-08-18T09:12:22.758Z,100831.98
2017-08-18T09:14:50.982Z,100827.80
2017-08-18T09:17:18.878Z,100827.98
2017-08-18T09:19:46.785Z,100821.45
2017-08-18T09:22:14.704Z,100816.98
2017-08-18T09:24:42.823Z,100811.12
2017-08-18T09:27:10.723Z,100800.42
2017-08-18T09:29:38.628Z,100802.86
2017-08-18T09:32:06.535Z,100794.91
2017-08-18T09:34:34.429Z,100794.53
2017-08-18T09:37:02.367Z,100791.69
2017-08-18T09:39:30.372Z,100796.80
2017-08-18T09:41:58.274Z,100793.78
2017-08-18T09:44:26.184Z,100790.13
2017-08-18T09:46:54.238Z,100780.11
2017-08-18T09:49:33.849Z,100786.55
2017-08-18T09:52:13.532Z,100785.91
2017-08-18T09:54:53.310Z,100783.08
2017-08-18T09:57:33.222Z,100782.59
2017-08-18T10:00:01.134Z,100780.46
2017-08-18T10:02:29.074Z,100778.00
2017-08-18T10:04:56.975Z,100767.62
2017-08-18T10:07:24.884Z,100770.13
2017-08-18T10:09:52.786Z,100769.81
2017-08-18T10:12:20.994Z,100754.86
2017-08-18T10:14:48.908Z,100751.05
2017-08-18T10:17:16.802Z,100747.26
2017-08-18T10:19:45.064Z,100745.25
2017-08-18T10:22:12.963Z,100736.60
2017-08-18T10:24:40.867Z,100735.67
2017-08-18T10:27:08.784Z,100728.86
2017-08-18T10:29:36.693Z,100727.09
2017-08-18T10:32:04.598Z,100732.05
2017-08-18T10:34:32.508Z,100733.07
2017-08-18T10:37:00.410Z,100730.81
2017-08-18T10:39:28.311Z,100719.75
2017-08-18T10:41:56.488Z,100724.16
2017-08-18T10:44:24.383Z,100721.86
2017-08-18T10:46:52.292Z,100710.66
2017-08-18T10:49:20.211Z,100713.16
2017-08-18T10:51:48.115Z,100709.31
2017-08-18T10:54:16.028Z,100705.75
2017-08-18T10:56:43.922Z,100695.86
2017-08-18T10:59:11.851Z,100700.09
2017-08-18T11:01:39.783Z,100696.61
2017-08-18T11:04:07.690Z,100699.10
2017-08-18T11:06:35.587Z,100694.25
2017-08-18T11:09:03.598Z,100690.52
2017-08-18T11:11:31.507Z,100681.25
2017-08-18T11:13:59.397Z,100683.33
2017-08-18T11:16:27.315Z,100684.00
2017-08-18T11:18:55.328Z,100679.63
2017-08-18T11:21:23.234Z,100678.13
2017-08-18T11:23:51.154Z,100679.48
2017-08-18T11:26:19.331Z,100681.43
2017-08-18T11:28:47.240Z,100682.55
2017-08-18T11:31:15.148Z,100672.56
2017-08-18T11:33:43.054Z,100663.27
2017-08-18T11:36:10.957Z,100658.78
2017-08-18T11:38:38.866Z,100659.05
2017-08-18T11:41:06.771Z,100659.98
2017-08-18T11:43:34.688Z,100660.73
2017-08-18T11:46:02.679Z,100652.52
2017-08-18T11:48:30.601Z,100651.47
2017-08-18T11:50:58.498Z,100644.98
2017-08-18T11:53:26.588Z,100645.45
2017-08-18T11:55:54.482Z,100648.80
2017-08-18T11:58:22.378Z,100641.08
2017-08-18T12:00:50.286Z,100642.53
2017-08-18T12:03:18.196Z,100639.17
2017-08-18T12:05:46.102Z,100641.94
2017-08-18T12:08:14.101Z,100633.05
2017-08-18T12:10:41.997Z,100635.04
2017-08-18T12:13:09.907Z,100626.10
2017-08-18T12:15:37.815Z,100618.95
2017-08-18T12:18:05.710Z,100618.81
2017-08-18T12:20:34.086Z,100620.70
2017-08-18T12:23:01.991Z,100612.66
2017-08-18T12:25:29.900Z,100610.88
2017-08-18T12:27:57.838Z,100607.61
2017-08-18T12:30:25.734Z,100607.42
2017-08-18T12:32:53.652Z,100604.97
2017-08-18T12:35:21.651Z,100600.48
2017-08-18T12:37:49.577Z,100593.52
2017-08-18T12:40:17.480Z,100592.22
2017-08-18T12:42:45.389Z,100587.89
2017-08-18T12:45:13.300Z,100576.14
2017-08-18T12:47:41.217Z,100585.02
2017-08-18T12:50:09.124Z,100582.27
2017-08-18T12:52:37.451Z,100580.80
2017-08-18T12:55:05.361Z,100575.63
2017-08-18T12:57:33.257Z,100572.84
2017-08-18T13:00:01.434Z,100568.50
2017-08-18T13:02:29.327Z,100564.97
2017-08-18T13:04:57.234Z,100562.13
2017-08-18T13:07:25.163Z,100561.53
2017-08-18T13:09:53.075Z,100560.66
2017-08-18T13:12:20.974Z,100562.95
2017-08-18T13:14:49.322Z,100542.64
2017-08-18T13:17:17.247Z,100544.95
2017-08-18T13:19:45.152Z,100542.31
2017-08-18T13:22:13.053Z,100534.84
2017-08-18T13:24:40.949Z,100531.00
2017-08-18T13:27:08.863Z,100523.74
2017-08-18T13:29:36.772Z,100527.39
2017-08-18T13:32:04.859Z,100517.08
2017-08-18T13:34:32.755Z,100513.19
2017-08-18T13:37:00.657Z,100501.63
2017-08-18T13:39:28.562Z,100490.95
2017-08-18T13:41:56.467Z,100495.55
2017-08-18T13:44:24.380Z,100491.13
2017-08-18T13:46:52.274Z,100480.97
2017-08-18T13:49:20.191Z,100474.34
2017-08-18T13:51:48.097Z,100469.11
2017-08-18T13:54:16.012Z,100473.66
2017-08-18T13:56:43.923Z,100470.50
2017-08-18T13:59:12.190Z,100465.89
2017-08-18T14:01:40.116Z,100468.31
2017-08-18T14:04:08.020Z,100468.70
2017-08-18T14:06:35.945Z,100470.44
2017-08-18T14:09:04.149Z,100465.09
2017-08-18T14:11:32.054Z,100460.62
2017-08-18T14:13:59.945Z,100462.58
2017-08-18T14:16:27.863Z,100465.95
2017-08-18T14:18:55.773Z,100461.92
2017-08-18T14:21:24.064Z,100449.59
2017-08-18T14:23:51.971Z,100454.69
2017-08-18T14:26:25.826Z,100454.55
2017-08-18T14:28:53.744Z,100444.37
2017-08-18T14:31:21.644Z,100441.20
2017-08-18T14:33:49.552Z,100433.65
2017-08-18T14:36:17.455Z,100427.41
2017-08-18T14:38:45.376Z,100431.62
2017-08-18T14:41:13.285Z,100432.08
2017-08-18T14:43:41.209Z,100428.91
2017-08-18T14:46:09.136Z,100422.69
2017-08-18T14:48:37.047Z,100420.41
2017-08-18T14:51:04.956Z,100426.82
2017-08-18T14:53:33.096Z,100422.17
2017-08-18T14:56:01.000Z,100420.61
2017-08-18T14:58:28.900Z,100417.00
2017-08-18T15:00:56.990Z,100416.64
2017-08-18T15:03:24.971Z,100412.33
2017-08-18T15:05:52.878Z,100407.45
2017-08-18T15:08:20.794Z,100412.19
2017-08-18T15:10:48.732Z,100420.20
2017-08-18T15:13:16.635Z,100404.11
2017-08-18T15:15:44.709Z,100408.88
2017-08-18T15:18:12.628Z,100404.75
2017-08-18T15:20:40.531Z,100417.70
2017-08-18T15:23:08.434Z,100416.00
2017-08-18T15:25:36.334Z,100406.37
2017-08-18T15:28:04.250Z,100406.71
2017-08-18T15:30:32.163Z,100400.09
2017-08-18T15:33:00.062Z,100394.19
2017-08-18T15:35:27.971Z,100399.79
2017-08-18T15:37:55.895Z,100393.92
2017-08-18T15:40:23.795Z,100383.25
2017-08-18T15:42:51.864Z,100375.91
2017-08-18T15:45:19.802Z,100371.98
2017-08-18T15:47:47.703Z,100370.06
2017-08-18T15:50:15.610Z,100370.22
2017-08-18T15:52:43.527Z,100370.66
2017-08-18T15:55:11.436Z,100359.34
2017-08-18T15:57:39.344Z,100362.09
2017-08-18T16:00:07.669Z,100359.00
2017-08-18T16:02:35.566Z,100355.28
2017-08-18T16:05:03.466Z,100354.40
2017-08-18T16:07:31.380Z,100345.30
2017-08-18T16:09:59.330Z,100342.83
2017-08-18T16:12:27.249Z,100333.66
2017-08-18T16:14:55.163Z,100330.09
2017-08-18T16:17:23.093Z,100320.10
2017-08-18T16:19:51.003Z,100306.88
2017-08-18T16:22:18.919Z,100295.18
2017-08-18T16:24:46.831Z,100296.02
2017-08-18T16:27:15.124Z,100293.38
2017-08-18T16:29:43.031Z,100297.52
2017-08-18T16:32:10.938Z,100293.23
2017-08-18T16:34:38.834Z,100285.64
2017-08-18T16:37:06.730Z,100282.91
2017-08-18T16:39:34.638Z,100288.57
2017-08-18T16:42:02.533Z,100282.08
2017-08-18T16:44:30.463Z,100288.42
2017-08-18T16:46:58.376Z,100283.25
2017-08-18T16:49:26.302Z,100285.97
2017-08-18T16:51:54.204Z,100282.97
2017-08-18T16:54:22.103Z,100288.71
2017-08-18T16:56:50.011Z,100283.91
2017-08-18T16:59:17.927Z,100283.35
2017-08-18T17:01:45.834Z,100288.70
2017-08-18T17:04:13.740Z,100289.28
2017-08-18T17:06:41.646Z,100282.27
2017-08-18T17:09:09.560Z,100283.55
2017-08-18T17:11:37.655Z,100276.77
2017-08-18T17:14:05.554Z,100274.42
2017-08-18T17:16:33.755Z,100257.88
2017-08-18T17:19:01.923Z,100252.31
2017-08-18T17:21:29.832Z,100253.00
2017-08-18T17:23:57.737Z,100242.12
2017-08-18T17:26:25.651Z,100231.34
2017-08-18T17:28:53.758Z,100233.56
2017-08-18T17:31:21.665Z,100234.38
2017-08-18T17:33:49.562Z,100235.92
2017-08-18T17:36:17.778Z,100224.42
2017-08-18T17:38:45.686Z,100212.52
2017-08-18T17:41:13.599Z,100186.15
2017-08-18T17:43:41.512Z,100173.50
2017-08-18T17:46:09.419Z,100170.23
2017-08-18T17:48:37.336Z,100189.13
2017-08-18T17:51:05.247Z,100205.86
2017-08-18T17:53:33.355Z,100209.91
2017-08-18T17:56:01.261Z,100216.47
2017-08-18T17:58:29.168Z,100254.89
2017-08-18T18:00:57.075Z,100266.94
2017-08-18T18:03:24.971Z,100233.09
2017-08-18T18:05:52.888Z,100246.52
2017-08-18T18:08:20.788Z,100266.34
2017-08-18T18:10:48.978Z,100269.52
2017-08-18T18:13:16.884Z,100310.00
2017-08-18T18:15:44.992Z,100322.80
2017-08-18T18:18:12.886Z,100297.80
2017-08-18T18:20:40.795Z,100345.63
2017-08-18T18:23:08.712Z,100386.97
2017-08-18T18:25:36.645Z,100403.08
2017-08-18T18:28:04.870Z,100396.73
2017-08-18T18:30:32.769Z,100381.39
2017-08-18T18:33:00.881Z,100353.10
2017-08-18T18:35:28.800Z,100351.34
2017-08-18T18:37:56.702Z,100348.19
2017-08-18T18:40:24.624Z,100355.45
2017-08-18T18:42:52.536Z,100356.19
2017-08-18T18:45:20.468Z,100339.74
2017-08-18T18:47:48.371Z,100338.72
2017-08-18T18:50:16.296Z,100338.39
2017-08-18T18:52:44.282Z,100344.78
2017-08-18T18:55:12.215Z,100343.72
2017-08-18T18:57:40.116Z,100319.64
2017-08-18T19:00:08.016Z,100314.77
2017-08-18T19:02:35.935Z,100309.80
2017-08-18T19:05:03.856Z,100311.23
2017-08-18T19:07:31.770Z,100315.73
2017-08-18T19:09:59.663Z,100329.08
2017-08-18T19:12:27.580Z,100320.92
2017-08-18T19:14:55.479Z,100295.38
2017-08-18T19:17:23.375Z,100297.96
2017-08-18T19:19:51.296Z,100272.86
2017-08-18T19:22:19.212Z,100265.86
2017-08-18T19:24:47.114Z,100290.92
2017-08-18T19:27:15.024Z,100305.20
2017-08-18T19:29:42.945Z,100292.62
2017-08-18T19:32:10.847Z,100278.59
2017-08-18T19:34:39.037Z,100266.95
2017-08-18T19:37:06.949Z,100286.23
2017-08-18T19:39:34.860Z,100285.13
2017-08-18T19:42:02.760Z,100287.83
2017-08-18T19:44:30.676Z,100288.31
2017-08-18T19:46:58.578Z,100286.55
2017-08-18T19:49:26.500Z,100286.18
2017-08-18T19:51:54.407Z,100293.37
2017-08-18T19:54:22.315Z,100288.39
2017-08-18T19:56:50.233Z,100280.80
2017-08-18T19:59:18.149Z,100288.48
2017-08-18T20:01:46.064Z,100290.72
2017-08-18T20:04:13.959Z,100300.16
2017-08-18T20:06:42.093Z,100301.14
2017-08-18T20:09:09.995Z,100308.05
2017-08-18T20:11:37.900Z,100324.21
2017-08-18T20:14:05.906Z,100334.97
2017-08-18T20:16:33.870Z,100335.64
2017-08-18T20:19:01.792Z,100329.56
2017-08-18T20:21:29.686Z,100325.41
2017-08-18T20:23:57.598Z,100322.86
2017-08-18T20:26:25.507Z,100308.88
2017-08-18T20:28:53.419Z,100302.19
2017-08-18T20:31:21.340Z,100303.44
2017-08-18T20:33:49.464Z,100307.02
2017-08-18T20:36:17.376Z,100313.31
2017-08-18T20:38:45.275Z,100321.70
2017-08-18T20:41:13.187Z,100317.17
2017-08-18T20:43:41.192Z,100307.94
2017-08-18T20:46:09.162Z,100319.49
2017-08-18T20:48:37.079Z,100316.08
2017-08-18T20:51:05.287Z,100324.39
2017-08-18T20:53:33.370Z,100331.89
2017-08-18T20:56:01.283Z,100347.32
2017-08-18T20:58:29.196Z,100350.97
2017-08-18T21:00:57.238Z,100345.48
2017-08-18T21:03:25.135Z,100332.25
2017-08-18T21:05:53.052Z,100336.97
2017-08-18T21:08:20.976Z,100342.93
2017-08-18T21:10:48.882Z,100360.42
2017-08-18T21:13:16.796Z,100366.23
2017-08-18T21:15:44.712Z,100368.21
2017-08-18T21:18:12.633Z,100363.75
2017-08-18T21:20:40.544Z,100371.81
2017-08-18T21:23:08.464Z,100374.05
2017-08-18T21:25:36.384Z,100372.09
2017-08-18T21:28:04.402Z,100364.78
2017-08-18T21:30:32.313Z,100366.08
2017-08-18T21:33:00.234Z,100367.97
2017-08-18T21:35:28.187Z,100377.77
2017-08-18T21:37:56.082Z,100378.12
2017-08-18T21:40:24.005Z,100380.67
2017-08-18T21:42:51.902Z,100384.17
2017-08-18T21:45:19.815Z,100393.13
2017-08-18T21:47:47.720Z,100395.20
2017-08-18T21:50:15.622Z,100408.95
2017-08-18T21:52:43.513Z,100413.04
2017-08-18T21:55:11.534Z,100414.82
2017-08-18T21:57:39.430Z,100419.83
2017-08-18T22:00:07.338Z,100420.39
2017-08-18T22:02:35.602Z,100421.02
2017-08-18T22:05:03.520Z,100413.92
2017-08-18T22:07:31.431Z,100409.32
2017-08-18T22:09:59.344Z,100430.44
2017-08-18T22:12:27.245Z,100435.80
2017-08-18T22:14:55.151Z,100435.17
2017-08-18T22:17:23.062Z,100442.78
2017-08-18T22:19:50.962Z,100447.88
2017-08-18T22:22:18.903Z,100446.09
2017-08-18T22:24:46.799Z,100445.61
2017-08-18T22:27:14.752Z,100448.95
2017-08-18T22:29:42.647Z,100433.48
2017-08-18T22:32:10.935Z,100433.57
2017-08-18T22:34:38.844Z,100420.53
2017-08-18T22:37:06.739Z,100418.61
2017-08-18T22:39:34.648Z,100418.27
2017-08-18T22:42:02.542Z,100422.68
2017-08-18T22:44:30.460Z,100429.08
2017-08-18T22:46:58.371Z,100428.16
2017-08-18T22:49:26.314Z,100420.45
2017-08-18T22:51:54.224Z,100409.31
2017-08-18T22:54:22.418Z,100421.79
2017-08-18T22:56:50.328Z,100432.48
2017-08-18T22:59:18.232Z,100425.06
2017-08-18T23:01:46.134Z,100446.42
2017-08-18T23:04:14.182Z,100448.36
2017-08-18T23:06:42.096Z,100446.32
2017-08-18T23:09:10.009Z,100449.43
2017-08-18T23:11:38.242Z,100443.67
2017-08-18T23:14:06.156Z,100444.98
2017-08-18T23:16:34.390Z,100448.39
2017-08-18T23:19:02.283Z,100462.43
2017-08-18T23:21:30.199Z,100466.73
2017-08-18T23:23:58.099Z,100472.50
2017-08-18T23:26:26.004Z,100483.17
2017-08-18T23:28:53.905Z,100485.02
2017-08-18T23:31:21.807Z,100488.41
2017-08-18T23:33:49.719Z,100487.72
2017-08-18T23:36:17.610Z,100488.46
2017-08-18T23:38:45.536Z,100487.43
2017-08-18T23:41:13.435Z,100490.46
2017-08-18T23:43:41.348Z,100503.58
2017-08-18T23:46:09.237Z,100494.94
2017-08-18T23:48:37.148Z,100499.45
2017-08-18T23:51:05.062Z,100499.53
2017-08-18T23:53:32.954Z,100504.47
2017-08-18T23:56:00.876Z,100497.97
2017-08-18T23:58:28.783Z,100492.36
